Time,TemperatureF,DewpointF,PressureIn,WindDirection,WindDirectionDegrees,WindSpeedMPH,WindSpeedGustMPH,Humidity,HourlyPrecipIn,Conditions,Clouds,dailyrainin,SolarRadiationWatts/m^2,SoftwareType,DateUTC
2013-01-25 00:01:00,25.0,11.1,30.53,NNE,28,0.2,2.3,55,0.00,CLR,OVC,0.00,0.0,WeatherDisplay:10.37,2013-01-25 05:01:00,
2013-01-25 00:02:00,24.9,11.0,30.54,NNE,28,0.1,1.1,55,0.00,CLR,OVC,0.00,0.0,WeatherDisplay:10.37,2013-01-25 05:02:00,
2013-01-25 00:03:00,24.9,11.0,30.54,NNE,28,0.2,1.1,55,0.00,CLR,OVC,0.00,0.0,WeatherDisplay:10.37,2013-01-25 05:03:00,
2013-01-25 00:08:00,24.8,10.9,30.54,NE,36,0.1,2.3,55,0.00,CLR,OVC,0.00,0.0,WeatherDisplay:10.37,2013-01-25 05:08:00,
2013-01-25 00:13:00,24.7,11.2,30.53,NE,36,0.0,0.0,56,0.00,CLR,OVC,0.00,0.0,WeatherDisplay:10.37,2013-01-25 05:13:00,
2013-01-25 00:18:00,24.6,11.9,30.53,NE,36,0.0,0.0,58,0.00,CLR,OVC,0.00,0.0,WeatherDisplay:10.37,2013-01-25 05:18:00,
2013-01-25 00:23:00,24.4,11.7,30.53,NE,36,0.0,0.0,58,0.00,CLR,OVC,0.00,0.0,WeatherDisplay:10.37,2013-01-25 05:23:00,
2013-01-25 00:28:00,24.2,11.9,30.53,NE,36,0.1,0.0,59,0.00,CLR,OVC,0.00,0.0,WeatherDisplay:10.37,2013-01-25 05:28:00,
2013-01-25 00:33:00,24.0,12.1,30.53,NE,36,0.0,0.0,60,0.00,CLR,OVC,0.00,0.0,WeatherDisplay:10.37,2013-01-25 05:33:00,
2013-01-25 00:38:00,23.8,11.2,30.53,NE,36,0.0,0.0,58,0.00,CLR,OVC,0.00,0.0,WeatherDisplay:10.37,2013-01-25 05:38:00,
2013-01-25 00:43:00,23.6,11.7,30.54,NE,36,0.0,0.0,60,0.00,CLR,OVC,0.00,0.0,WeatherDisplay:10.37,2013-01-25 05:43:00,
2013-01-25 00:48:00,23.5,12.4,30.53,NE,36,0.0,1.1,62,0.00,CLR,OVC,0.00,0.0,WeatherDisplay:10.37,2013-01-25 05:48:00,
2013-01-25 00:53:00,23.3,12.2,30.53,NE,36,0.0,0.0,62,0.00,CLR,OVC,0.00,0.0,WeatherDisplay:10.37,2013-01-25 05:53:00,
2013-01-25 00:58:00,23.2,11.4,30.52,NE,36,0.2,1.1,60,0.00,CLR,OVC,0.00,0.0,WeatherDisplay:10.37,2013-01-25 05:58:00,
2013-01-25 01:03:00,23.2,11.4,30.52,NE,36,0.0,0.0,60,0.00,CLR,OVC,0.00,0.0,WeatherDisplay:10.37,2013-01-25 06:03:00,
2013-01-25 01:08:00,23.2,11.4,30.53,NE,36,0.0,0.0,60,0.00,CLR,OVC,0.00,0.0,WeatherDisplay:10.37,2013-01-25 06:08:00,
2013-01-25 01:13:00,23.2,12.1,30.53,NE,36,0.1,1.1,62,0.00,CLR,OVC,0.00,0.0,WeatherDisplay:10.37,2013-01-25 06:13:00,
2013-01-25 01:18:00,23.2,11.4,30.53,NE,36,0.0,0.0,60,0.00,CLR,OVC,0.00,0.0,WeatherDisplay:10.37,2013-01-25 06:18:00,
2013-01-25 01:23:00,23.1,11.3,30.52,NE,36,0.3,1.1,60,0.00,CLR,OVC,0.00,0.0,WeatherDisplay:10.37,2013-01-25 06:23:00,
2013-01-25 01:29:00,23.1,11.6,30.52,NE,36,0.0,0.0,61,0.00,CLR,OVC,0.00,0.0,WeatherDisplay:10.37,2013-01-25 06:29:00,
2013-01-25 01:34:00,23.1,11.6,30.53,NE,36,0.0,0.0,61,0.00,CLR,OVC,0.00,0.0,WeatherDisplay:10.37,2013-01-25 06:34:00,
2013-01-25 01:39:00,22.9,11.8,30.53,NE,36,0.2,1.1,62,0.00,CLR,OVC,0.00,0.0,WeatherDisplay:10.37,2013-01-25 06:39:00,
2013-01-25 01:44:00,22.8,12.1,30.54,NE,36,0.0,0.0,63,0.00,CLR,OVC,0.00,0.0,WeatherDisplay:10.37,2013-01-25 06:44:00,
2013-01-25 01:49:00,22.7,12.0,30.54,NE,36,0.0,0.0,63,0.00,CLR,OVC,0.00,0.0,WeatherDisplay:10.37,2013-01-25 06:49:00,
2013-01-25 01:54:00,22.5,12.1,30.54,NE,36,0.0,0.0,64,0.00,CLR,OVC,0.00,0.0,WeatherDisplay:10.37,2013-01-25 06:54:00,
2013-01-25 01:59:00,22.4,12.4,30.54,NE,36,0.0,0.0,65,0.00,CLR,OVC,0.00,0.0,WeatherDisplay:10.37,2013-01-25 06:59:00,
2013-01-25 02:04:00,22.2,11.9,30.54,NE,36,0.0,0.0,64,0.00,CLR,OVC,0.00,0.0,WeatherDisplay:10.37,2013-01-25 07:04:00,
2013-01-25 02:09:00,22.0,11.7,30.53,NE,36,0.0,0.0,64,0.00,CLR,OVC,0.00,0.0,WeatherDisplay:10.37,2013-01-25 07:09:00,
2013-01-25 02:14:00,21.8,12.2,30.54,NE,36,0.0,0.0,66,0.00,CLR,OVC,0.00,0.0,WeatherDisplay:10.37,2013-01-25 07:14:00,
2013-01-25 02:19:00,21.6,12.3,30.54,NE,36,0.0,0.0,67,0.00,CLR,OVC,0.00,0.0,WeatherDisplay:10.37,2013-01-25 07:19:00,
2013-01-25 02:24:00,21.5,12.2,30.53,NE,36,0.0,1.1,67,0.00,CLR,OVC,0.00,0.0,WeatherDisplay:10.37,2013-01-25 07:24:00,
2013-01-25 02:29:00,21.3,11.7,30.53,NE,36,0.4,2.3,66,0.00,CLR,OVC,0.00,0.0,WeatherDisplay:10.37,2013-01-25 07:29:00,
2013-01-25 02:34:00,21.2,11.9,30.53,NE,36,0.0,0.0,67,0.00,CLR,OVC,0.00,0.0,WeatherDisplay:10.37,2013-01-25 07:34:00,
2013-01-25 02:39:00,21.1,11.5,30.53,NE,36,0.0,0.0,66,0.00,CLR,OVC,0.00,0.0,WeatherDisplay:10.37,2013-01-25 07:39:00,
2013-01-25 02:44:00,21.1,11.5,30.53,NE,36,0.0,0.0,66,0.00,CLR,OVC,0.00,0.0,WeatherDisplay:10.37,2013-01-25 07:44:00,
2013-01-25 02:49:00,21.0,11.4,30.54,NE,36,0.0,0.0,66,0.00,CLR,OVC,0.00,0.0,WeatherDisplay:10.37,2013-01-25 07:49:00,
2013-01-25 02:54:00,21.0,11.4,30.53,NE,36,0.0,0.0,66,0.00,CLR,OVC,0.00,0.0,WeatherDisplay:10.37,2013-01-25 07:54:00,
2013-01-25 02:59:00,21.1,11.5,30.54,NE,36,0.0,0.0,66,0.00,CLR,OVC,0.00,0.0,WeatherDisplay:10.37,2013-01-25 07:59:00,
2013-01-25 03:04:00,21.1,11.5,30.54,NE,36,0.2,2.3,66,0.00,CLR,OVC,0.00,0.0,WeatherDisplay:10.37,2013-01-25 08:04:00,
2013-01-25 03:09:00,21.0,11.4,30.53,NE,36,0.0,0.0,66,0.00,CLR,OVC,0.00,0.0,WeatherDisplay:10.37,2013-01-25 08:09:00,
2013-01-25 03:14:00,21.1,11.2,30.53,NE,36,0.0,1.1,65,0.00,CLR,OVC,0.00,0.0,WeatherDisplay:10.37,2013-01-25 08:14:00,
2013-01-25 03:19:00,21.0,11.1,30.53,NE,36,0.0,0.0,65,0.00,CLR,OVC,0.00,0.0,WeatherDisplay:10.37,2013-01-25 08:19:00,
2013-01-25 03:24:00,21.0,11.4,30.53,NE,36,0.0,0.0,66,0.00,CLR,OVC,0.00,0.0,WeatherDisplay:10.37,2013-01-25 08:24:00,
2013-01-25 03:29:00,21.1,11.5,30.52,NE,36,0.0,0.0,66,0.00,CLR,OVC,0.00,0.0,WeatherDisplay:10.37,2013-01-25 08:29:00,
2013-01-25 03:34:00,21.1,11.5,30.52,NE,36,0.0,0.0,66,0.00,CLR,OVC,0.00,0.0,WeatherDisplay:10.37,2013-01-25 08:34:00,
2013-01-25 03:39:00,21.0,11.4,30.52,NE,36,0.0,0.0,66,0.00,CLR,OVC,0.00,0.0,WeatherDisplay:10.37,2013-01-25 08:39:00,
2013-01-25 03:44:00,21.1,11.8,30.52,NE,36,0.4,2.3,67,0.00,CLR,OVC,0.00,0.0,WeatherDisplay:10.37,2013-01-25 08:44:00,
2013-01-25 03:49:00,21.1,11.5,30.52,NE,36,0.0,0.0,66,0.00,CLR,OVC,0.00,0.0,WeatherDisplay:10.37,2013-01-25 08:49:00,
2013-01-25 03:54:00,21.1,11.8,30.52,NE,36,0.0,0.0,67,0.00,CLR,OVC,0.00,0.0,WeatherDisplay:10.37,2013-01-25 08:54:00,
2013-01-25 03:59:00,21.0,11.8,30.52,NE,36,0.0,0.0,67,0.00,CLR,OVC,0.00,0.0,WeatherDisplay:10.37,2013-01-25 08:59:00,
2013-01-25 04:04:00,20.9,12.0,30.52,NE,36,0.0,0.0,68,0.00,CLR,OVC,0.00,0.0,WeatherDisplay:10.37,2013-01-25 09:04:00,
2013-01-25 04:09:00,20.8,11.9,30.53,NE,36,0.0,0.0,68,0.00,CLR,OVC,0.00,0.0,WeatherDisplay:10.37,2013-01-25 09:09:00,
2013-01-25 04:14:00,20.8,12.2,30.53,NE,36,0.0,0.0,69,0.00,CLR,OVC,0.00,0.0,WeatherDisplay:10.37,2013-01-25 09:14:00,
2013-01-25 04:19:00,20.7,12.1,30.52,NE,36,0.0,0.0,69,0.00,CLR,OVC,0.00,0.0,WeatherDisplay:10.37,2013-01-25 09:19:00,
2013-01-25 04:24:00,20.6,12.0,30.52,NE,36,0.2,0.0,69,0.00,CLR,OVC,0.00,0.0,WeatherDisplay:10.37,2013-01-25 09:24:00,
2013-01-25 04:29:00,20.6,12.0,30.52,NE,36,0.0,0.0,69,0.00,CLR,OVC,0.00,0.0,WeatherDisplay:10.37,2013-01-25 09:29:00,
2013-01-25 04:34:00,20.5,12.3,30.52,NE,36,0.0,0.0,70,0.00,CLR,OVC,0.00,0.0,WeatherDisplay:10.37,2013-01-25 09:34:00,
2013-01-25 04:39:00,20.4,12.2,30.52,NE,36,0.0,0.0,70,0.00,CLR,OVC,0.00,0.0,WeatherDisplay:10.37,2013-01-25 09:39:00,
2013-01-25 04:44:00,20.3,12.1,30.52,NE,36,0.0,0.0,70,0.00,CLR,OVC,0.00,0.0,WeatherDisplay:10.37,2013-01-25 09:44:00,
2013-01-25 04:49:00,20.2,12.3,30.52,NE,36,0.0,0.0,71,0.00,CLR,OVC,0.00,0.0,WeatherDisplay:10.37,2013-01-25 09:49:00,
2013-01-25 04:54:00,20.1,12.2,30.52,NE,36,0.0,0.0,71,0.00,CLR,OVC,0.00,0.0,WeatherDisplay:10.37,2013-01-25 09:54:00,
2013-01-25 04:59:00,20.0,12.1,30.51,NE,36,0.0,0.0,71,0.00,CLR,OVC,0.00,0.0,WeatherDisplay:10.37,2013-01-25 09:59:00,
2013-01-25 05:04:00,20.1,11.9,30.51,NE,36,0.0,2.3,70,0.00,CLR,OVC,0.00,0.0,WeatherDisplay:10.37,2013-01-25 10:04:00,
2013-01-25 05:09:00,20.1,11.6,30.51,NNW,342,0.3,3.5,69,0.00,CLR,OVC,0.00,0.0,WeatherDisplay:10.37,2013-01-25 10:09:00,
2013-01-25 05:14:00,20.4,11.8,30.51,NNW,337,0.0,0.0,69,0.00,CLR,OVC,0.00,0.0,WeatherDisplay:10.37,2013-01-25 10:14:00,
2013-01-25 05:19:00,20.6,11.7,30.51,NW,323,0.5,2.3,68,0.00,CLR,OVC,0.00,0.0,WeatherDisplay:10.37,2013-01-25 10:19:00,
2013-01-25 05:24:00,20.6,11.7,30.51,NW,325,0.0,0.0,68,0.00,CLR,OVC,0.00,0.0,WeatherDisplay:10.37,2013-01-25 10:24:00,
2013-01-25 05:29:00,20.7,11.8,30.51,NW,325,0.0,0.0,68,0.00,CLR,OVC,0.00,0.0,WeatherDisplay:10.37,2013-01-25 10:29:00,
2013-01-25 05:34:00,20.7,11.8,30.51,North,355,0.0,0.0,68,0.00,CLR,OVC,0.00,0.0,WeatherDisplay:10.37,2013-01-25 10:34:00,
2013-01-25 05:39:00,20.7,11.8,30.51,NNW,338,1.4,2.0,68,0.00,CLR,OVC,0.00,0.0,WeatherDisplay:10.37,2013-01-25 10:39:00,
2013-01-25 05:44:00,20.7,11.8,30.51,North,351,1.6,3.5,68,0.00,CLR,OVC,0.00,0.0,WeatherDisplay:10.37,2013-01-25 10:44:00,
2013-01-25 05:50:00,20.8,11.9,30.50,NW,306,0.0,0.0,68,0.00,CLR,OVC,0.00,0.0,WeatherDisplay:10.37,2013-01-25 10:50:00,
2013-01-25 05:55:00,21.0,11.8,30.50,North,360,1.2,3.5,67,0.00,CLR,OVC,0.00,0.0,WeatherDisplay:10.37,2013-01-25 10:55:00,
2013-01-25 06:00:00,21.1,11.8,30.50,NNE,27,1.4,3.5,67,0.00,CLR,OVC,0.00,0.0,WeatherDisplay:10.37,2013-01-25 11:00:00,
2013-01-25 06:05:00,21.1,11.8,30.50,NNE,27,1.3,3.5,67,0.00,CLR,OVC,0.00,0.0,WeatherDisplay:10.37,2013-01-25 11:05:00,
2013-01-25 06:10:00,21.2,11.9,30.50,North,355,0.0,0.0,67,0.00,CLR,OVC,0.00,0.0,WeatherDisplay:10.37,2013-01-25 11:10:00,
2013-01-25 06:15:00,21.1,11.5,30.50,North,355,0.0,0.0,66,0.00,CLR,OVC,0.00,0.0,WeatherDisplay:10.37,2013-01-25 11:15:00,
2013-01-25 06:20:00,21.1,11.5,30.50,North,355,0.0,0.0,66,0.00,CLR,OVC,0.00,0.0,WeatherDisplay:10.37,2013-01-25 11:20:00,
2013-01-25 06:25:00,21.1,11.5,30.50,NNW,348,0.0,0.0,66,0.00,CLR,OVC,0.00,0.0,WeatherDisplay:10.37,2013-01-25 11:25:00,
2013-01-25 06:30:00,21.2,11.6,30.50,NNE,15,1.3,3.5,66,0.00,CLR,OVC,0.00,0.0,WeatherDisplay:10.37,2013-01-25 11:30:00,
2013-01-25 06:35:00,21.2,11.6,30.49,NNE,17,0.0,0.0,66,0.00,CLR,OVC,0.00,0.0,WeatherDisplay:10.37,2013-01-25 11:35:00,
2013-01-25 06:40:00,21.3,11.7,30.49,NNE,13,0.0,0.0,66,0.00,CLR,OVC,0.00,0.0,WeatherDisplay:10.37,2013-01-25 11:40:00,
2013-01-25 06:45:00,21.3,11.7,30.49,North,9,0.0,0.0,66,0.00,CLR,OVC,0.00,0.0,WeatherDisplay:10.37,2013-01-25 11:45:00,
2013-01-25 06:50:00,21.4,11.8,30.50,NNW,346,0.0,1.1,66,0.00,CLR,OVC,0.00,0.0,WeatherDisplay:10.37,2013-01-25 11:50:00,
2013-01-25 06:55:00,21.5,12.2,30.49,NNW,348,0.0,0.0,67,0.00,CLR,OVC,0.00,0.0,WeatherDisplay:10.37,2013-01-25 11:55:00,
2013-01-25 07:00:00,21.6,12.0,30.49,North,5,0.6,3.0,66,0.00,CLR,OVC,0.00,0.0,WeatherDisplay:10.37,2013-01-25 12:00:00,
2013-01-25 07:05:00,21.9,12.3,30.49,NE,45,1.5,3.5,66,0.00,OVC,,0.00,0.0,WeatherDisplay:10.37,2013-01-25 12:05:00,
2013-01-25 07:10:00,22.1,12.5,30.49,North,10,1.3,2.3,66,0.00,OVC,,0.00,0.0,WeatherDisplay:10.37,2013-01-25 12:10:00,
2013-01-25 07:15:00,22.3,12.7,30.49,North,355,1.0,3.5,66,0.00,OVC,,0.00,0.0,WeatherDisplay:10.37,2013-01-25 12:15:00,
2013-01-25 07:20:00,22.5,12.5,30.50,NNW,333,0.9,3.5,65,0.00,OVC,,0.00,0.0,WeatherDisplay:10.37,2013-01-25 12:20:00,
2013-01-25 07:25:00,22.7,12.3,30.49,North,360,1.3,3.5,64,0.00,OVC,,0.00,0.0,WeatherDisplay:10.37,2013-01-25 12:25:00,
2013-01-25 07:30:00,22.9,12.5,30.49,NNE,19,0.9,2.3,64,0.00,OVC,,0.00,0.0,WeatherDisplay:10.37,2013-01-25 12:30:00,
2013-01-25 07:35:00,23.1,12.4,30.49,NNE,29,0.2,2.3,63,0.00,OVC,,0.00,0.0,WeatherDisplay:10.37,2013-01-25 12:35:00,
2013-01-25 07:40:00,23.3,12.2,30.49,NE,34,1.5,3.5,62,0.00,OVC,,0.00,0.0,WeatherDisplay:10.37,2013-01-25 12:40:00,
2013-01-25 07:45:00,23.6,12.1,30.49,ENE,67,1.2,3.5,61,0.00,OVC,,0.00,0.0,WeatherDisplay:10.37,2013-01-25 12:45:00,
2013-01-25 07:50:00,23.8,12.7,30.49,NNE,24,0.6,1.1,62,0.00,OVC,,0.00,0.0,WeatherDisplay:10.37,2013-01-25 12:50:00,
2013-01-25 07:55:00,24.2,12.7,30.48,NNE,15,1.5,4.6,61,0.00,OVC,,0.00,0.0,WeatherDisplay:10.37,2013-01-25 12:55:00,
2013-01-25 08:00:00,24.7,13.1,30.48,NE,41,1.0,3.5,61,0.00,OVC,,0.00,0.0,WeatherDisplay:10.37,2013-01-25 13:00:00,
2013-01-25 08:05:00,25.2,12.9,30.48,NE,56,1.4,4.0,59,0.00,OVC,,0.00,0.0,WeatherDisplay:10.37,2013-01-25 13:05:00,
2013-01-25 08:10:00,25.4,13.4,30.48,NNW,344,1.0,2.3,60,0.00,OVC,,0.00,0.0,WeatherDisplay:10.37,2013-01-25 13:10:00,
2013-01-25 08:15:00,25.6,12.9,30.49,North,360,2.6,5.8,58,0.00,OVC,,0.00,0.0,WeatherDisplay:10.37,2013-01-25 13:15:00,
2013-01-25 08:20:00,25.8,13.4,30.49,North,355,0.3,1.1,59,0.00,OVC,,0.00,0.0,WeatherDisplay:10.37,2013-01-25 13:20:00,
2013-01-25 08:25:00,26.1,13.3,30.49,NW,319,2.0,5.8,58,0.00,OVC,,0.00,0.0,WeatherDisplay:10.37,2013-01-25 13:25:00,
2013-01-25 08:30:00,26.3,13.1,30.48,NE,46,3.1,4.0,57,0.00,OVC,,0.00,0.0,WeatherDisplay:10.37,2013-01-25 13:30:00,
2013-01-25 08:35:00,26.6,13.8,30.49,NNW,342,1.7,3.5,58,0.00,OVC,,0.00,0.0,WeatherDisplay:10.37,2013-01-25 13:35:00,
2013-01-25 08:40:00,27.0,13.8,30.49,North,9,1.6,3.5,57,0.00,OVC,,0.00,0.0,WeatherDisplay:10.37,2013-01-25 13:40:00,
2013-01-25 08:45:00,27.4,13.7,30.48,NE,46,2.4,4.6,56,0.00,OVC,,0.00,0.0,WeatherDisplay:10.37,2013-01-25 13:45:00,
2013-01-25 08:50:00,27.5,13.8,30.48,NNW,339,0.9,4.0,56,0.00,OVC,,0.00,0.0,WeatherDisplay:10.37,2013-01-25 13:50:00,
2013-01-25 08:55:00,27.9,14.2,30.48,North,5,0.8,3.0,56,0.00,OVC,,0.00,0.0,WeatherDisplay:10.37,2013-01-25 13:55:00,
2013-01-25 09:00:00,28.2,14.5,30.47,NE,43,2.7,4.6,56,0.00,OVC,,0.00,0.0,WeatherDisplay:10.37,2013-01-25 14:00:00,
2013-01-25 09:05:00,28.5,14.4,30.47,NE,49,5.6,8.1,55,0.00,OVC,,0.00,0.0,WeatherDisplay:10.37,2013-01-25 14:05:00,
2013-01-25 09:10:00,28.9,14.3,30.48,ENE,60,4.3,8.1,54,0.00,OVC,,0.00,0.0,WeatherDisplay:10.37,2013-01-25 14:10:00,
2013-01-25 09:15:00,29.2,15.0,30.48,NE,37,5.1,7.0,55,0.00,OVC,,0.00,0.0,WeatherDisplay:10.37,2013-01-25 14:15:00,
2013-01-25 09:20:00,29.5,14.9,30.46,NE,52,4.1,6.9,54,0.00,OVC,,0.00,0.0,WeatherDisplay:10.37,2013-01-25 14:20:00,
2013-01-25 09:25:00,29.9,15.7,30.45,NE,36,4.9,10.4,55,0.00,OVC,,0.00,0.0,WeatherDisplay:10.37,2013-01-25 14:25:00,
2013-01-25 09:30:00,30.3,16.0,30.45,NE,49,6.1,8.1,55,0.00,OVC,,0.00,0.0,WeatherDisplay:10.37,2013-01-25 14:30:00,
2013-01-25 09:35:00,30.6,17.2,30.45,NE,50,2.6,8.1,57,0.00,OVC,,0.00,0.0,WeatherDisplay:10.37,2013-01-25 14:35:00,
2013-01-25 09:40:00,31.4,17.5,30.46,NNE,29,1.5,8.1,56,0.00,OVC,,0.00,0.0,WeatherDisplay:10.37,2013-01-25 14:40:00,
2013-01-25 09:45:00,32.0,18.1,30.45,ENE,60,6.1,8.1,56,0.00,OVC,,0.00,0.0,WeatherDisplay:10.37,2013-01-25 14:45:00,
2013-01-25 09:50:00,32.6,19.0,30.46,ESE,105,2.1,6.9,57,0.00,OVC,,0.00,0.0,WeatherDisplay:10.37,2013-01-25 14:50:00,
2013-01-25 09:55:00,33.1,19.5,30.46,NE,40,6.6,10.4,57,0.00,OVC,,0.00,0.0,WeatherDisplay:10.37,2013-01-25 14:55:00,
2013-01-25 10:00:00,33.1,19.5,30.46,ENE,71,5.4,8.1,57,0.00,OVC,,0.00,0.0,WeatherDisplay:10.37,2013-01-25 15:00:00,
2013-01-25 10:05:00,33.6,20.4,30.45,NNE,33,2.9,3.5,58,0.00,OVC,,0.00,0.0,WeatherDisplay:10.37,2013-01-25 15:05:00,
2013-01-25 10:10:00,34.1,20.9,30.46,NE,34,5.2,6.9,58,0.00,OVC,,0.00,0.0,WeatherDisplay:10.37,2013-01-25 15:10:00,
2013-01-25 10:15:00,34.4,21.9,30.46,ESE,121,5.5,7.0,60,0.00,OVC,,0.00,0.0,WeatherDisplay:10.37,2013-01-25 15:15:00,
2013-01-25 10:20:00,35.0,22.5,30.45,ENE,72,3.6,4.6,60,0.00,OVC,,0.00,0.0,WeatherDisplay:10.37,2013-01-25 15:20:00,
2013-01-25 10:25:00,35.7,22.8,30.45,North,360,1.5,5.8,59,0.00,OVC,,0.00,0.0,WeatherDisplay:10.37,2013-01-25 15:25:00,
2013-01-25 10:30:00,35.7,23.2,30.44,ESE,105,5.0,8.1,60,0.00,OVC,,0.00,0.0,WeatherDisplay:10.37,2013-01-25 15:30:00,
2013-01-25 10:35:00,36.0,23.8,30.44,ENE,74,3.6,8.1,61,0.00,OVC,,0.00,0.0,WeatherDisplay:10.37,2013-01-25 15:35:00,
2013-01-25 10:40:00,36.1,24.3,30.43,NE,55,6.1,11.5,62,0.00,OVC,,0.00,0.0,WeatherDisplay:10.37,2013-01-25 15:40:00,
2013-01-25 10:45:00,36.3,24.9,30.42,NNE,32,4.1,9.2,63,0.00,OVC,,0.00,0.0,WeatherDisplay:10.37,2013-01-25 15:45:00,
2013-01-25 10:50:00,36.3,25.3,30.43,NW,324,4.4,4.6,64,0.00,OVC,,0.00,0.0,WeatherDisplay:10.37,2013-01-25 15:50:00,
2013-01-25 10:55:00,36.3,25.7,30.43,ENE,68,3.8,6.9,65,0.00,OVC,,0.00,0.0,WeatherDisplay:10.37,2013-01-25 15:55:00,
2013-01-25 11:01:00,35.8,25.2,30.42,ENE,71,5.9,8.1,65,0.00,OVC,,0.00,0.0,WeatherDisplay:10.37,2013-01-25 16:01:00,
2013-01-25 11:06:00,35.7,26.5,30.42,ENE,61,4.0,6.9,69,0.00,OVC,,0.00,0.0,WeatherDisplay:10.37,2013-01-25 16:06:00,
2013-01-25 11:11:00,35.8,27.0,30.42,NE,36,4.7,8.1,70,0.00,OVC,,0.00,0.0,WeatherDisplay:10.37,2013-01-25 16:11:00,
2013-01-25 11:16:00,35.9,27.1,30.42,ENE,57,3.5,5.8,70,0.00,OVC,,0.00,0.0,WeatherDisplay:10.37,2013-01-25 16:16:00,
2013-01-25 11:21:00,36.1,27.6,30.41,NE,51,1.9,4.6,71,0.00,OVC,,0.00,0.0,WeatherDisplay:10.37,2013-01-25 16:21:00,
2013-01-25 11:26:00,36.1,27.6,30.40,NE,53,3.6,5.8,71,0.00,OVC,,0.00,0.0,WeatherDisplay:10.37,2013-01-25 16:26:00,
2013-01-25 11:31:00,36.0,27.5,30.41,NNE,19,4.1,8.1,71,0.00,OVC,,0.00,0.0,WeatherDisplay:10.37,2013-01-25 16:31:00,
2013-01-25 11:36:00,35.5,27.4,30.40,NE,50,2.7,8.1,72,0.00,OVC,,0.00,0.0,WeatherDisplay:10.37,2013-01-25 16:36:00,
2013-01-25 11:41:00,35.2,27.4,30.40,NNE,20,1.4,3.5,73,0.00,OVC,,0.00,0.0,WeatherDisplay:10.37,2013-01-25 16:41:00,
2013-01-25 11:46:00,35.2,27.4,30.40,NE,55,6.0,8.1,73,0.00,OVC,,0.00,0.0,WeatherDisplay:10.37,2013-01-25 16:46:00,
2013-01-25 11:51:00,35.0,27.5,30.40,NNE,33,4.0,5.8,74,0.00,OVC,,0.00,0.0,WeatherDisplay:10.37,2013-01-25 16:51:00,
2013-01-25 11:56:00,35.0,27.5,30.39,NE,40,2.9,4.6,74,0.00,OVC,,0.00,0.0,WeatherDisplay:10.37,2013-01-25 16:56:00,
2013-01-25 12:01:00,35.0,27.9,30.38,NE,38,2.2,6.0,75,0.00,OVC,,0.00,0.0,WeatherDisplay:10.37,2013-01-25 17:01:00,
2013-01-25 12:06:00,35.0,27.5,30.37,NE,51,0.7,2.3,74,0.00,OVC,,0.00,0.0,WeatherDisplay:10.37,2013-01-25 17:06:00,
2013-01-25 12:11:00,35.2,27.7,30.37,NE,35,3.8,6.9,74,0.00,OVC,,0.00,0.0,WeatherDisplay:10.37,2013-01-25 17:11:00,
2013-01-25 12:16:00,35.1,28.0,30.36,NNE,23,4.6,8.1,75,0.00,OVC,,0.00,0.0,WeatherDisplay:10.37,2013-01-25 17:16:00,
2013-01-25 12:21:00,35.1,28.3,30.36,NE,40,2.0,4.6,76,0.00,OVC,,0.00,0.0,WeatherDisplay:10.37,2013-01-25 17:21:00,
2013-01-25 12:26:00,35.0,28.2,30.36,NNE,22,1.4,3.5,76,0.00,OVC,,0.00,0.0,WeatherDisplay:10.37,2013-01-25 17:26:00,
2013-01-25 12:31:00,35.0,28.2,30.35,NE,40,3.1,5.0,76,0.00,OVC,,0.00,0.0,WeatherDisplay:10.37,2013-01-25 17:31:00,
2013-01-25 12:36:00,35.0,28.2,30.34,ENE,67,1.6,3.5,76,0.00,OVC,,0.00,0.0,WeatherDisplay:10.37,2013-01-25 17:36:00,
2013-01-25 12:41:00,35.0,28.2,30.34,NE,44,2.0,4.0,76,0.00,OVC,,0.00,0.0,WeatherDisplay:10.37,2013-01-25 17:41:00,
2013-01-25 12:46:00,35.1,28.6,30.34,NNE,13,0.1,2.0,77,0.00,OVC,,0.00,0.0,WeatherDisplay:10.37,2013-01-25 17:46:00,
2013-01-25 12:51:00,35.1,28.6,30.33,ENE,65,4.5,6.9,77,0.00,OVC,,0.00,0.0,WeatherDisplay:10.37,2013-01-25 17:51:00,
2013-01-25 12:56:00,35.0,28.5,30.33,NE,56,2.5,3.5,77,0.00,OVC,,0.00,0.0,WeatherDisplay:10.37,2013-01-25 17:56:00,
2013-01-25 13:01:00,35.0,28.5,30.31,NNE,32,2.4,4.6,77,0.00,OVC,,0.00,0.0,WeatherDisplay:10.37,2013-01-25 18:01:00,
2013-01-25 13:06:00,35.0,28.5,30.31,ENE,72,3.8,5.0,77,0.00,OVC,,0.00,0.0,WeatherDisplay:10.37,2013-01-25 18:06:00,
2013-01-25 13:11:00,35.0,28.5,30.30,ENE,59,3.9,5.8,77,0.00,OVC,,0.00,0.0,WeatherDisplay:10.37,2013-01-25 18:11:00,
2013-01-25 13:16:00,35.1,28.9,30.30,NE,52,1.6,2.3,78,0.00,OVC,,0.00,0.0,WeatherDisplay:10.37,2013-01-25 18:16:00,
2013-01-25 13:21:00,35.3,29.1,30.29,NNE,20,2.0,5.8,78,0.00,OVC,,0.00,0.0,WeatherDisplay:10.37,2013-01-25 18:21:00,
2013-01-25 13:26:00,35.4,29.2,30.28,East,97,2.0,4.6,78,0.00,OVC,,0.00,0.0,WeatherDisplay:10.37,2013-01-25 18:26:00,
2013-01-25 13:31:00,35.5,29.3,30.28,NNE,24,0.9,2.3,78,0.00,OVC,,0.00,0.0,WeatherDisplay:10.37,2013-01-25 18:31:00,
2013-01-25 13:36:00,35.7,29.8,30.28,North,350,2.4,8.1,79,0.00,OVC,,0.00,0.0,WeatherDisplay:10.37,2013-01-25 18:36:00,
2013-01-25 13:41:00,35.9,30.0,30.28,NE,42,3.6,5.8,79,0.00,OVC,,0.00,0.0,WeatherDisplay:10.37,2013-01-25 18:41:00,
2013-01-25 13:46:00,36.0,30.1,30.27,NNE,17,0.5,2.0,79,0.00,OVC,,0.00,0.0,WeatherDisplay:10.37,2013-01-25 18:46:00,
2013-01-25 13:51:00,36.1,30.2,30.27,North,351,2.5,5.8,79,0.00,OVC,,0.00,0.0,WeatherDisplay:10.37,2013-01-25 18:51:00,
2013-01-25 13:56:00,36.2,30.0,30.27,NE,36,0.9,5.0,78,0.00,OVC,,0.00,0.0,WeatherDisplay:10.37,2013-01-25 18:56:00,
2013-01-25 14:01:00,36.2,30.3,30.25,ENE,60,0.0,1.1,79,0.00,OVC,,0.00,0.0,WeatherDisplay:10.37,2013-01-25 19:01:00,
2013-01-25 14:06:00,36.3,30.7,30.25,ENE,58,0.0,0.0,80,0.00,OVC,,0.00,0.0,WeatherDisplay:10.37,2013-01-25 19:06:00,
2013-01-25 14:11:00,36.5,30.9,30.25,NE,48,0.0,4.6,80,0.00,OVC,,0.00,0.0,WeatherDisplay:10.37,2013-01-25 19:11:00,
2013-01-25 14:16:00,36.6,31.0,30.25,ENE,63,0.2,2.3,80,0.00,OVC,,0.00,0.0,WeatherDisplay:10.37,2013-01-25 19:16:00,
2013-01-25 14:21:00,36.6,31.0,30.25,NE,44,0.1,1.1,80,0.00,OVC,,0.00,0.0,WeatherDisplay:10.37,2013-01-25 19:21:00,
2013-01-25 14:26:00,36.7,31.1,30.25,NE,42,0.0,2.3,80,0.00,OVC,,0.00,0.0,WeatherDisplay:10.37,2013-01-25 19:26:00,
2013-01-25 14:31:00,36.7,31.4,30.23,ENE,74,1.3,2.0,81,0.00,OVC,,0.00,0.0,WeatherDisplay:10.37,2013-01-25 19:31:00,
2013-01-25 14:36:00,36.7,31.4,30.23,East,95,0.4,3.5,81,0.00,OVC,,0.00,0.0,WeatherDisplay:10.37,2013-01-25 19:36:00,
2013-01-25 14:41:00,36.8,31.5,30.22,NE,45,0.1,3.5,81,0.00,OVC,,0.00,0.0,WeatherDisplay:10.37,2013-01-25 19:41:00,
2013-01-25 14:46:00,36.9,31.9,30.22,East,84,0.0,0.0,82,0.00,OVC,,0.00,0.0,WeatherDisplay:10.37,2013-01-25 19:46:00,
2013-01-25 14:51:00,37.0,32.0,30.21,North,355,0.9,1.1,82,0.00,OVC,,0.00,0.0,WeatherDisplay:10.37,2013-01-25 19:51:00,
2013-01-25 14:56:00,37.1,32.1,30.21,NE,44,0.0,1.1,82,0.00,OVC,,0.00,0.0,WeatherDisplay:10.37,2013-01-25 19:56:00,
2013-01-25 15:01:00,37.2,32.2,30.21,NE,44,0.5,2.3,82,0.00,OVC,,0.00,0.0,WeatherDisplay:10.37,2013-01-25 20:01:00,
2013-01-25 15:06:00,37.3,32.3,30.21,NE,48,0.0,0.0,82,0.00,OVC,,0.00,0.0,WeatherDisplay:10.37,2013-01-25 20:06:00,
2013-01-25 15:11:00,37.3,32.6,30.21,ENE,71,0.0,0.0,83,0.00,OVC,,0.00,0.0,WeatherDisplay:10.37,2013-01-25 20:11:00,
2013-01-25 15:16:00,37.5,32.8,30.21,NE,37,0.0,0.0,83,0.00,OVC,,0.00,0.0,WeatherDisplay:10.37,2013-01-25 20:16:00,
2013-01-25 15:21:00,37.5,32.5,30.21,North,350,0.6,3.5,82,0.00,OVC,,0.00,0.0,WeatherDisplay:10.37,2013-01-25 20:21:00,
2013-01-25 15:26:00,37.6,32.3,30.21,North,355,0.0,0.0,81,0.00,OVC,,0.00,0.0,WeatherDisplay:10.37,2013-01-25 20:26:00,
2013-01-25 15:31:00,37.6,32.0,30.20,East,79,0.7,3.5,80,0.00,OVC,,0.00,0.0,WeatherDisplay:10.37,2013-01-25 20:31:00,
2013-01-25 15:36:00,37.4,31.8,30.20,NE,51,0.4,1.1,80,0.00,OVC,,0.00,0.0,WeatherDisplay:10.37,2013-01-25 20:36:00,
2013-01-25 15:41:00,37.3,31.7,30.20,WNW,297,0.2,2.3,80,0.00,OVC,,0.00,0.0,WeatherDisplay:10.37,2013-01-25 20:41:00,
2013-01-25 15:46:00,37.2,31.6,30.19,NE,38,1.0,4.6,80,0.00,OVC,,0.00,0.0,WeatherDisplay:10.37,2013-01-25 20:46:00,
2013-01-25 15:51:00,37.2,31.6,30.18,West,261,0.0,1.1,80,0.00,OVC,,0.00,0.0,WeatherDisplay:10.37,2013-01-25 20:51:00,
2013-01-25 15:56:00,37.2,31.6,30.19,West,267,0.0,0.0,80,0.00,OVC,,0.00,0.0,WeatherDisplay:10.37,2013-01-25 20:56:00,
2013-01-25 16:01:00,37.2,31.6,30.18,NNW,346,0.0,0.0,80,0.00,OVC,,0.00,0.0,WeatherDisplay:10.37,2013-01-25 21:01:00,
2013-01-25 16:06:00,37.1,31.8,30.17,WNW,298,2.8,5.0,81,0.00,OVC,,0.00,0.0,WeatherDisplay:10.37,2013-01-25 21:06:00,
2013-01-25 16:11:00,37.2,31.9,30.16,East,94,1.0,2.3,81,0.00,OVC,,0.00,0.0,WeatherDisplay:10.37,2013-01-25 21:11:00,
2013-01-25 16:16:00,37.1,32.1,30.18,WNW,291,2.1,4.6,82,0.00,OVC,,0.00,0.0,WeatherDisplay:10.37,2013-01-25 21:16:00,
2013-01-25 16:21:00,37.2,32.2,30.17,ENE,57,2.4,4.6,82,0.00,OVC,,0.00,0.0,WeatherDisplay:10.37,2013-01-25 21:21:00,
2013-01-25 16:26:00,37.3,32.6,30.17,NW,316,0.3,1.1,83,0.00,OVC,,0.00,0.0,WeatherDisplay:10.37,2013-01-25 21:26:00,
2013-01-25 16:31:00,37.4,32.4,30.19,WNW,295,1.4,3.5,82,0.00,OVC,,0.00,0.0,WeatherDisplay:10.37,2013-01-25 21:31:00,
2013-01-25 16:37:00,37.4,32.4,30.19,NW,306,1.0,3.5,82,0.00,OVC,,0.00,0.0,WeatherDisplay:10.37,2013-01-25 21:37:00,
2013-01-25 16:42:00,37.3,32.3,30.19,WNW,290,1.1,3.5,82,0.00,OVC,,0.00,0.0,WeatherDisplay:10.37,2013-01-25 21:42:00,
2013-01-25 16:47:00,37.1,32.1,30.18,NNW,340,0.7,2.3,82,0.00,OVC,,0.00,0.0,WeatherDisplay:10.37,2013-01-25 21:47:00,
2013-01-25 16:52:00,36.9,32.2,30.18,NW,321,0.8,6.0,83,0.00,OVC,,0.00,0.0,WeatherDisplay:10.37,2013-01-25 21:52:00,
2013-01-25 16:57:00,36.7,32.6,30.18,WNW,294,0.7,3.5,85,0.00,OVC,,0.00,0.0,WeatherDisplay:10.37,2013-01-25 21:57:00,
2013-01-25 17:02:00,36.5,32.4,30.18,NW,319,0.4,2.3,85,0.00,OVC,,0.00,0.0,WeatherDisplay:10.37,2013-01-25 22:02:00,
2013-01-25 17:07:00,36.2,32.4,30.19,North,5,0.1,1.1,86,0.01,RA,OVC,0.01,0.0,WeatherDisplay:10.37,2013-01-25 22:07:00,
2013-01-25 17:12:00,36.0,32.5,30.19,NW,321,0.5,3.5,87,0.01,RA,OVC,0.01,0.0,WeatherDisplay:10.37,2013-01-25 22:12:00,
2013-01-25 17:17:00,35.9,32.7,30.19,NW,309,1.4,3.5,88,0.01,OVC,,0.01,0.0,WeatherDisplay:10.37,2013-01-25 22:17:00,
2013-01-25 17:22:00,35.7,32.5,30.19,West,270,0.3,4.0,88,0.02,RA,OVC,0.02,0.0,WeatherDisplay:10.37,2013-01-25 22:22:00,
2013-01-25 17:27:00,35.5,32.6,30.19,North,5,1.4,5.8,89,0.02,RA,OVC,0.02,0.0,WeatherDisplay:10.37,2013-01-25 22:27:00,
2013-01-25 17:32:00,35.2,32.6,30.18,NW,304,1.0,3.5,90,0.03,RA,OVC,0.03,0.0,WeatherDisplay:10.37,2013-01-25 22:32:00,
2013-01-25 17:37:00,35.1,32.5,30.19,WSW,239,1.8,4.6,90,0.03,RA,OVC,0.03,0.0,WeatherDisplay:10.37,2013-01-25 22:37:00,
2013-01-25 17:42:00,34.8,32.2,30.18,NW,306,0.0,1.1,90,0.04,RA,OVC,0.04,0.0,WeatherDisplay:10.37,2013-01-25 22:42:00,
2013-01-25 17:47:00,34.6,32.2,30.17,NNW,338,0.5,2.3,91,0.04,RA,OVC,0.04,0.0,WeatherDisplay:10.37,2013-01-25 22:47:00,
2013-01-25 17:52:00,34.5,32.4,30.17,North,5,0.8,3.5,92,0.05,RA,OVC,0.05,0.0,WeatherDisplay:10.37,2013-01-25 22:52:00,
2013-01-25 17:57:00,34.3,32.2,30.18,WNW,299,0.2,2.3,92,0.05,RA,OVC,0.05,0.0,WeatherDisplay:10.37,2013-01-25 22:57:00,
2013-01-25 18:02:00,34.3,32.2,30.19,WSW,250,1.2,5.8,92,0.05,OVC,,0.05,0.0,WeatherDisplay:10.37,2013-01-25 23:02:00,
2013-01-25 18:07:00,34.1,32.0,30.16,ESE,115,1.2,3.5,92,0.04,CLR,OVC,0.05,0.0,WeatherDisplay:10.37,2013-01-25 23:07:00,
2013-01-25 18:12:00,34.0,32.2,30.18,WNW,299,3.2,5.8,93,0.05,RA,OVC,0.06,0.0,WeatherDisplay:10.37,2013-01-25 23:12:00,
2013-01-25 18:17:00,34.0,32.2,30.17,North,355,0.4,2.3,93,0.05,RA,OVC,0.06,0.0,WeatherDisplay:10.37,2013-01-25 23:17:00,
2013-01-25 18:22:00,33.9,32.1,30.16,NNE,29,1.5,3.5,93,0.04,,OVC,0.06,0.0,WeatherDisplay:10.37,2013-01-25 23:22:00,
2013-01-25 18:27:00,33.7,31.9,30.15,ENE,59,1.8,3.5,93,0.04,CLR,OVC,0.06,0.0,WeatherDisplay:10.37,2013-01-25 23:27:00,
2013-01-25 18:32:00,33.5,31.7,30.15,WNW,284,1.8,4.0,93,0.03,CLR,OVC,0.06,0.0,WeatherDisplay:10.37,2013-01-25 23:32:00,
2013-01-25 18:37:00,33.3,31.5,30.15,NNE,19,0.2,1.1,93,0.03,CLR,OVC,0.06,0.0,WeatherDisplay:10.37,2013-01-25 23:37:00,
2013-01-25 18:42:00,33.2,31.4,30.14,WNW,288,0.2,1.1,93,0.02,CLR,OVC,0.06,0.0,WeatherDisplay:10.37,2013-01-25 23:42:00,
2013-01-25 18:47:00,33.1,31.3,30.15,South,188,0.1,1.1,93,0.02,CLR,OVC,0.06,0.0,WeatherDisplay:10.37,2013-01-25 23:47:00,
2013-01-25 18:52:00,33.0,31.2,30.14,West,271,0.4,2.3,93,0.01,CLR,OVC,0.06,0.0,WeatherDisplay:10.37,2013-01-25 23:52:00,
2013-01-25 18:57:00,32.9,31.1,30.15,WSW,239,0.4,1.1,93,0.01,CLR,OVC,0.06,0.0,WeatherDisplay:10.37,2013-01-25 23:57:00,
2013-01-25 19:02:00,32.9,31.1,30.16,WSW,257,0.9,3.5,93,0.01,CLR,OVC,0.06,0.0,WeatherDisplay:10.37,2013-01-26 00:02:00,
2013-01-25 19:07:00,32.9,31.1,30.16,NW,315,0.9,2.3,93,0.01,CLR,OVC,0.06,0.0,WeatherDisplay:10.37,2013-01-26 00:07:00,
2013-01-25 19:12:00,32.8,31.0,30.16,NW,315,0.1,1.1,93,0.00,CLR,OVC,0.06,0.0,WeatherDisplay:10.37,2013-01-26 00:12:00,
2013-01-25 19:17:00,32.8,31.0,30.16,West,281,1.0,4.6,93,0.00,CLR,OVC,0.06,0.0,WeatherDisplay:10.37,2013-01-26 00:17:00,
2013-01-25 19:22:00,32.6,30.8,30.17,NW,319,3.3,6.9,93,0.00,CLR,OVC,0.06,0.0,WeatherDisplay:10.37,2013-01-26 00:22:00,
2013-01-25 19:27:00,32.5,31.0,30.18,NW,314,1.3,9.2,94,0.00,CLR,OVC,0.06,0.0,WeatherDisplay:10.37,2013-01-26 00:27:00,
2013-01-25 19:32:00,32.4,30.6,30.18,WNW,296,3.5,5.8,93,0.00,CLR,OVC,0.06,0.0,WeatherDisplay:10.37,2013-01-26 00:32:00,
2013-01-25 19:37:00,32.3,30.5,30.17,West,259,0.6,2.3,93,0.00,CLR,OVC,0.06,0.0,WeatherDisplay:10.37,2013-01-26 00:37:00,
2013-01-25 19:42:00,32.2,30.7,30.17,WNW,291,1.5,3.5,94,0.00,CLR,OVC,0.06,0.0,WeatherDisplay:10.37,2013-01-26 00:42:00,
2013-01-25 19:47:00,32.2,30.7,30.16,West,279,0.4,2.3,94,0.00,CLR,OVC,0.06,0.0,WeatherDisplay:10.37,2013-01-26 00:47:00,
2013-01-25 19:52:00,32.2,30.7,30.16,WSW,253,1.3,3.5,94,0.00,CLR,OVC,0.06,0.0,WeatherDisplay:10.37,2013-01-26 00:52:00,
2013-01-25 19:57:00,32.2,30.7,30.16,West,273,1.7,3.5,94,0.00,CLR,OVC,0.06,0.0,WeatherDisplay:10.37,2013-01-26 00:57:00,
2013-01-25 20:02:00,32.2,30.7,30.17,NNE,32,1.6,3.5,94,0.01,RA,OVC,0.07,0.0,WeatherDisplay:10.37,2013-01-26 01:02:00,
2013-01-25 20:07:00,32.2,30.7,30.16,SSE,163,2.1,3.5,94,0.01,RA,OVC,0.07,0.0,WeatherDisplay:10.37,2013-01-26 01:07:00,
2013-01-25 20:12:00,32.2,30.7,30.16,SW,224,0.3,2.3,94,0.01,CLR,OVC,0.07,0.0,WeatherDisplay:10.37,2013-01-26 01:12:00,
2013-01-25 20:17:00,32.2,30.7,30.16,WNW,282,2.8,5.8,94,0.01,CLR,OVC,0.07,0.0,WeatherDisplay:10.37,2013-01-26 01:17:00,
2013-01-25 20:22:00,32.2,30.7,30.16,NW,319,2.0,3.5,94,0.01,CLR,OVC,0.07,0.0,WeatherDisplay:10.37,2013-01-26 01:22:00,
2013-01-25 20:27:00,32.2,30.7,30.16,NNW,329,1.2,3.5,94,0.01,CLR,OVC,0.07,0.0,WeatherDisplay:10.37,2013-01-26 01:27:00,
2013-01-25 20:32:00,32.2,30.7,30.16,West,277,2.9,3.5,94,0.01,CLR,OVC,0.07,0.0,WeatherDisplay:10.37,2013-01-26 01:32:00,
2013-01-25 20:37:00,32.2,30.7,30.15,WNW,291,3.4,6.0,94,0.01,CLR,OVC,0.07,0.0,WeatherDisplay:10.37,2013-01-26 01:37:00,
2013-01-25 20:42:00,32.1,30.6,30.15,WNW,287,4.0,5.0,94,0.01,CLR,OVC,0.07,0.0,WeatherDisplay:10.37,2013-01-26 01:42:00,
2013-01-25 20:47:00,32.1,30.6,30.15,WSW,253,4.0,7.0,94,0.01,CLR,OVC,0.07,0.0,WeatherDisplay:10.37,2013-01-26 01:47:00,
2013-01-25 20:52:00,32.0,30.5,30.15,SW,234,0.5,3.0,94,0.01,CLR,OVC,0.07,0.0,WeatherDisplay:10.37,2013-01-26 01:52:00,
2013-01-25 20:57:00,32.0,30.5,30.15,WSW,240,2.4,5.8,94,0.01,CLR,OVC,0.07,0.0,WeatherDisplay:10.37,2013-01-26 01:57:00,
2013-01-25 21:02:00,32.1,30.6,30.15,West,281,4.0,4.0,94,0.00,CLR,OVC,0.07,0.0,WeatherDisplay:10.37,2013-01-26 02:02:00,
2013-01-25 21:07:00,32.1,30.6,30.16,WSW,245,1.3,3.5,94,0.00,CLR,OVC,0.07,0.0,WeatherDisplay:10.37,2013-01-26 02:07:00,
2013-01-25 21:12:00,32.1,30.6,30.15,SW,236,2.8,6.9,94,0.00,CLR,OVC,0.07,0.0,WeatherDisplay:10.37,2013-01-26 02:12:00,
2013-01-25 21:17:00,32.1,30.6,30.15,NW,308,1.4,4.6,94,0.00,CLR,OVC,0.07,0.0,WeatherDisplay:10.37,2013-01-26 02:17:00,
2013-01-25 21:22:00,32.1,30.6,30.15,West,270,1.3,3.5,94,0.00,CLR,OVC,0.07,0.0,WeatherDisplay:10.37,2013-01-26 02:22:00,
2013-01-25 21:27:00,32.2,30.7,30.15,NW,323,3.0,4.6,94,0.00,CLR,OVC,0.07,0.0,WeatherDisplay:10.37,2013-01-26 02:27:00,
2013-01-25 21:32:00,32.2,30.7,30.16,NNW,327,4.4,6.9,94,0.00,CLR,OVC,0.07,0.0,WeatherDisplay:10.37,2013-01-26 02:32:00,
2013-01-25 21:37:00,32.3,30.8,30.17,WNW,290,2.8,5.8,94,0.00,CLR,OVC,0.07,0.0,WeatherDisplay:10.37,2013-01-26 02:37:00,
2013-01-25 21:42:00,32.3,30.8,30.17,NW,317,3.4,6.9,94,0.00,CLR,OVC,0.07,0.0,WeatherDisplay:10.37,2013-01-26 02:42:00,
2013-01-25 21:47:00,32.1,30.6,30.17,NW,308,2.4,7.0,94,0.00,CLR,OVC,0.07,0.0,WeatherDisplay:10.37,2013-01-26 02:47:00,
2013-01-25 21:52:00,32.0,30.5,30.17,NW,318,4.9,6.9,94,0.00,CLR,OVC,0.07,0.0,WeatherDisplay:10.37,2013-01-26 02:52:00,
2013-01-25 21:57:00,32.0,30.5,30.17,NW,314,2.7,4.0,94,0.00,CLR,OVC,0.07,0.0,WeatherDisplay:10.37,2013-01-26 02:57:00,
2013-01-25 22:02:00,32.0,30.5,30.17,NW,306,3.8,6.9,94,0.00,CLR,OVC,0.07,0.0,WeatherDisplay:10.37,2013-01-26 03:02:00,
2013-01-25 22:07:00,32.0,30.5,30.17,WNW,285,0.3,2.3,94,0.00,CLR,OVC,0.07,0.0,WeatherDisplay:10.37,2013-01-26 03:07:00,
2013-01-25 22:12:00,32.0,30.5,30.17,NNW,338,1.4,6.9,94,0.00,CLR,OVC,0.07,0.0,WeatherDisplay:10.37,2013-01-26 03:12:00,
2013-01-25 22:17:00,32.1,30.6,30.17,NW,305,2.3,4.0,94,0.00,CLR,OVC,0.07,0.0,WeatherDisplay:10.37,2013-01-26 03:17:00,
2013-01-25 22:22:00,32.1,30.6,30.17,NW,325,1.5,5.8,94,0.00,CLR,OVC,0.07,0.0,WeatherDisplay:10.37,2013-01-26 03:22:00,
2013-01-25 22:27:00,32.0,30.5,30.17,NW,321,2.6,5.8,94,0.00,CLR,OVC,0.07,0.0,WeatherDisplay:10.37,2013-01-26 03:27:00,
2013-01-25 22:32:00,32.0,30.5,30.17,West,273,2.7,5.8,94,0.00,CLR,OVC,0.07,0.0,WeatherDisplay:10.37,2013-01-26 03:32:00,
2013-01-25 22:38:00,32.0,30.5,30.17,NNW,338,1.2,3.5,94,0.00,CLR,OVC,0.07,0.0,WeatherDisplay:10.37,2013-01-26 03:38:00,
2013-01-25 22:43:00,32.1,30.6,30.17,NW,316,1.5,3.5,94,0.00,CLR,OVC,0.07,0.0,WeatherDisplay:10.37,2013-01-26 03:43:00,
2013-01-25 22:48:00,32.1,30.6,30.17,NNW,331,0.6,3.5,94,0.00,CLR,OVC,0.07,0.0,WeatherDisplay:10.37,2013-01-26 03:48:00,
2013-01-25 22:53:00,32.0,30.5,30.17,WNW,284,2.9,5.8,94,0.00,CLR,OVC,0.07,0.0,WeatherDisplay:10.37,2013-01-26 03:53:00,
2013-01-25 22:58:00,31.9,30.1,30.17,WNW,300,0.4,2.3,93,0.00,CLR,OVC,0.07,0.0,WeatherDisplay:10.37,2013-01-26 03:58:00,
2013-01-25 23:03:00,31.9,30.1,30.17,NNW,333,1.8,3.5,93,0.00,CLR,OVC,0.07,0.0,WeatherDisplay:10.37,2013-01-26 04:03:00,
2013-01-25 23:08:00,31.9,30.1,30.17,NNW,338,2.4,5.8,93,0.00,CLR,OVC,0.07,0.0,WeatherDisplay:10.37,2013-01-26 04:08:00,
2013-01-25 23:13:00,31.9,30.1,30.16,West,265,1.5,3.5,93,0.00,CLR,OVC,0.07,0.0,WeatherDisplay:10.37,2013-01-26 04:13:00,
2013-01-25 23:18:00,31.9,30.1,30.16,WNW,284,0.4,3.5,93,0.00,CLR,OVC,0.07,0.0,WeatherDisplay:10.37,2013-01-26 04:18:00,
2013-01-25 23:23:00,31.9,30.1,30.16,NW,307,1.7,3.5,93,0.00,CLR,OVC,0.07,0.0,WeatherDisplay:10.37,2013-01-26 04:23:00,
2013-01-25 23:28:00,31.9,30.1,30.16,WNW,298,0.8,3.5,93,0.00,CLR,OVC,0.07,0.0,WeatherDisplay:10.37,2013-01-26 04:28:00,
2013-01-25 23:33:00,31.8,29.7,30.16,WNW,298,1.8,3.5,92,0.00,CLR,OVC,0.07,0.0,WeatherDisplay:10.37,2013-01-26 04:33:00,
2013-01-25 23:38:00,31.8,29.7,30.16,West,274,0.5,1.1,92,0.00,CLR,OVC,0.07,0.0,WeatherDisplay:10.37,2013-01-26 04:38:00,
2013-01-25 23:43:00,31.9,30.1,30.16,WSW,247,1.6,3.5,93,0.00,CLR,OVC,0.07,0.0,WeatherDisplay:10.37,2013-01-26 04:43:00,
2013-01-25 23:48:00,31.9,29.8,30.16,West,259,2.6,6.0,92,0.00,CLR,OVC,0.07,0.0,WeatherDisplay:10.37,2013-01-26 04:48:00,
2013-01-25 23:53:00,31.9,29.8,30.16,West,274,0.3,1.1,92,0.00,CLR,OVC,0.07,0.0,WeatherDisplay:10.37,2013-01-26 04:53:00,
2013-01-25 23:58:00,31.9,29.8,30.15,NW,311,0.8,2.3,92,0.00,CLR,OVC,0.07,0.0,WeatherDisplay:10.37,2013-01-26 04:58:00,